Terminal Aerodrome Forecast
Issued by NWS Atlanta, GA

Home | Current Version | Previous Version | Text Only | Print | Product List | Glossary On
Versions: 1 2 3 4 5 6 7 8 9 10 11 12 13 14 15 16 17 18 19 20 21 22 23 24 25 26 27 28
000
FTUS42 KFFC 050819 AAA
TAFMCN
TAF AMD
KMCN 050819Z 0508/0606 28003KT P6SM VCSH SCT015
      TEMPO 0508/0512 BKN012
     FM051400 27003KT P6SM BKN025
     FM051900 22009G14KT P6SM VCSH BKN050 PROB30 0519/0524 3SM -TSRA
      BKN025CB
     FM060200 25003KT P6SM BKN040=

USA.gov is the U.S. government's official web portal to all federal, state and local government web resources and services.